»·PEaware :: QXE2324 KSEA-KGTF

QXE2324 :: KSEA-KGTF

FLIGHT INFORMATION

Flight Status: Arrived
Operator:
Horizon Air
More flights by this operator :: More flights under this callsign
Pilot: Adlai G. (28854)
Aircraft: DEHAVILLAND DASH 8 400
(DH8D)
More flights by this aircraft type
Origin: KSEA Seattle-Tacoma Intl
United States
Destination: KGTF Great Falls Intl
United States
More flights between these airports :: More routes between these airports
Route: SEA ZADON ZELAK ZIRAN MLP J36 GTF
File this flight plan on PilotEdge
Remarks:
Altitude:
(Current/Filed)
25,000ft
Speed:
(Current/Filed)
362kts
Departed: 12-May-20 12:00 PM
Arrived: 12-May-20 01:26 PM
Distance/Time
Traveled:
444nm/1:26
Distance/Time
To Go:
Arrived

Flight Plot

Page will automatically refresh every two minutes.

Flight plan parsing failed; only flown route is shown


Map Options




Map Legend


Flown Route
Filed Route
Departure Airport
Arrival Airport
Navaid (VOR, NDB)
Fix

Horizontal Profiles

Position Reports

Time Latitude Longitude Heading Altitude Ground
Speed
12-May-20 11:25 47.444268 -122.304957 133 440ft 0kts
12-May-20 11:26 47.444268 -122.304957 133 440ft 0kts
12-May-20 11:27 47.444268 -122.304957 133 440ft 0kts
12-May-20 11:28 47.444268 -122.304957 133 440ft 0kts
12-May-20 11:29 47.444268 -122.304957 133 440ft 0kts
12-May-20 11:30 47.444268 -122.304957 133 440ft 0kts
12-May-20 11:31 47.444268 -122.304957 133 440ft 0kts
12-May-20 11:32 47.444268 -122.304957 133 440ft 0kts
12-May-20 11:33 47.444268 -122.304957 133 440ft 0kts
12-May-20 11:34 47.444268 -122.304957 133 440ft 0kts
12-May-20 11:35 47.444268 -122.304957 133 440ft 0kts
12-May-20 11:36 47.444268 -122.304957 133 440ft 0kts
12-May-20 11:37 47.444268 -122.304957 133 440ft 0kts
12-May-20 11:38 47.444268 -122.304957 133 440ft 0kts
12-May-20 11:39 47.444268 -122.304957 133 440ft 0kts
12-May-20 11:40 47.444268 -122.304957 133 440ft 0kts
12-May-20 11:41 47.444268 -122.304957 133 440ft 0kts
12-May-20 11:42 47.444268 -122.304957 133 440ft 0kts
12-May-20 11:43 47.444268 -122.304957 133 440ft 0kts
12-May-20 11:44 47.444268 -122.304957 133 440ft 0kts
12-May-20 11:45 47.444268 -122.304957 133 440ft 0kts
12-May-20 11:46 47.444268 -122.304957 133 440ft 0kts
12-May-20 11:47 47.444268 -122.304957 133 440ft 0kts
12-May-20 11:49 47.444268 -122.304957 133 440ft 0kts
12-May-20 11:50 47.444268 -122.304957 133 440ft 0kts
12-May-20 11:51 47.444405 -122.305359 83 440ft 3kts
12-May-20 11:52 47.444105 -122.305673 0 440ft 0kts
12-May-20 11:53 47.444105 -122.305673 0 440ft 0kts
12-May-20 11:54 47.444105 -122.305673 0 440ft 0kts
12-May-20 11:55 47.444626 -122.305669 0 440ft 4kts
12-May-20 11:56 47.447365 -122.306281 0 440ft 17kts
12-May-20 11:57 47.452587 -122.306248 0 440ft 18kts
12-May-20 11:58 47.458842 -122.306196 0 440ft 23kts
12-May-20 11:59 47.463417 -122.306531 279 440ft 6kts
12-May-20 12:00 47.460850 -122.307746 180 440ft 73kts
12-May-20 12:01 47.420245 -122.308144 181 2387ft 167kts
12-May-20 12:02 47.370112 -122.304569 175 5592ft 186kts
12-May-20 12:03 47.320213 -122.286836 125 8395ft 203kts
12-May-20 12:03 47.332190 -122.213058 55 9000ft 276kts
12-May-20 12:05 47.386218 -122.102121 55 8985ft 283kts
12-May-20 12:06 47.431949 -122.008088 55 10163ft 280kts
12-May-20 12:06 47.469743 -121.930183 55 11607ft 283kts
12-May-20 12:07 47.515983 -121.834277 55 13003ft 289kts
12-May-20 12:08 47.559075 -121.733316 77 14287ft 291kts
12-May-20 12:10 47.560633 -121.597655 93 16036ft 282kts
12-May-20 12:10 47.559094 -121.500239 93 16945ft 286kts
12-May-20 12:11 47.557222 -121.381282 93 17916ft 292kts
12-May-20 12:12 47.555367 -121.262047 92 19136ft 284kts
12-May-20 12:13 47.553500 -121.144778 92 20104ft 285kts
12-May-20 12:14 47.551365 -121.027512 91 21105ft 283kts
12-May-20 12:15 47.549355 -120.911281 92 22103ft 280kts
12-May-20 12:16 47.547109 -120.796665 91 23099ft 276kts
12-May-20 12:17 47.544931 -120.683033 92 24010ft 280kts
12-May-20 12:18 47.542010 -120.564037 92 24518ft 297kts
12-May-20 12:19 47.539237 -120.438305 90 24758ft 317kts
12-May-20 12:20 47.538624 -120.303447 90 24763ft 336kts
12-May-20 12:21 47.539633 -120.162984 89 24759ft 346kts
12-May-20 12:22 47.539293 -120.019190 90 24759ft 352kts
12-May-20 12:23 47.538988 -119.873690 88 24758ft 356kts
12-May-20 12:24 47.538923 -119.726967 89 24759ft 356kts
12-May-20 12:25 47.538344 -119.580429 90 24762ft 358kts
12-May-20 12:26 47.538214 -119.433042 90 24766ft 358kts
12-May-20 12:27 47.536686 -119.285994 89 24767ft 356kts
12-May-20 12:28 47.536066 -119.139875 90 24772ft 353kts
12-May-20 12:29 47.534825 -118.995497 89 24774ft 351kts
12-May-20 12:30 47.533423 -118.851330 90 24775ft 350kts
12-May-20 12:31 47.532192 -118.707627 90 24777ft 350kts
12-May-20 12:32 47.530121 -118.563769 90 24779ft 349kts
12-May-20 12:33 47.528460 -118.420170 91 24788ft 349kts
12-May-20 12:34 47.526549 -118.275894 91 24796ft 353kts
12-May-20 12:35 47.524008 -118.129822 91 24800ft 356kts
12-May-20 12:36 47.521526 -117.982971 91 24808ft 358kts
12-May-20 12:37 47.519042 -117.835326 91 24811ft 360kts
12-May-20 12:38 47.516042 -117.687677 92 24812ft 360kts
12-May-20 12:39 47.513050 -117.539732 92 24812ft 359kts
12-May-20 12:40 47.509748 -117.392525 92 24811ft 359kts
12-May-20 12:41 47.506310 -117.245030 92 24809ft 359kts
12-May-20 12:42 47.502624 -117.097377 92 24806ft 359kts
12-May-20 12:43 47.498848 -116.949599 92 24805ft 360kts
12-May-20 12:44 47.494841 -116.802234 92 24804ft 359kts
12-May-20 12:45 47.490723 -116.654498 93 24804ft 359kts
12-May-20 12:46 47.486308 -116.507301 93 24804ft 358kts
12-May-20 12:47 47.481794 -116.360488 93 24803ft 358kts
12-May-20 12:48 47.476989 -116.213443 93 24803ft 358kts
12-May-20 12:49 47.472062 -116.066251 94 24803ft 359kts
12-May-20 12:50 47.466931 -115.918245 94 24803ft 361kts
12-May-20 12:51 47.461554 -115.770232 94 24803ft 362kts
12-May-20 12:52 47.456424 -115.621624 92 24804ft 364kts
12-May-20 12:53 47.459174 -115.472168 89 24805ft 365kts
12-May-20 12:54 47.461535 -115.321910 90 24804ft 365kts
12-May-20 12:55 47.463502 -115.172115 90 24805ft 366kts
12-May-20 12:56 47.465336 -115.021900 90 24806ft 365kts
12-May-20 12:57 47.466939 -114.871576 90 24808ft 365kts
12-May-20 12:58 47.468430 -114.721424 91 24811ft 366kts
12-May-20 12:59 47.469585 -114.571319 91 24811ft 367kts
12-May-20 13:00 47.470649 -114.420474 91 24813ft 368kts
12-May-20 13:01 47.471424 -114.269133 91 24813ft 368kts
12-May-20 13:02 47.472073 -114.117336 91 24813ft 369kts
12-May-20 13:03 47.472523 -113.965934 91 24814ft 370kts
12-May-20 13:04 47.472849 -113.813768 91 24817ft 370kts
12-May-20 13:05 47.472809 -113.662047 92 24819ft 370kts
12-May-20 13:06 47.472706 -113.509891 92 24698ft 370kts
12-May-20 13:07 47.465862 -113.358603 100 24202ft 371kts
12-May-20 13:08 47.451333 -113.205973 100 23704ft 379kts
12-May-20 13:09 47.436632 -113.051723 100 23203ft 378kts
12-May-20 13:10 47.422004 -112.900202 100 22700ft 369kts
12-May-20 13:11 47.407416 -112.749871 101 21357ft 376kts
12-May-20 13:12 47.392292 -112.595988 101 19513ft 380kts
12-May-20 13:13 47.376523 -112.442639 101 17695ft 376kts
12-May-20 13:14 47.361015 -112.291615 101 16045ft 367kts
12-May-20 13:15 47.345727 -112.146151 100 14839ft 349kts
12-May-20 13:16 47.331147 -112.007613 100 13685ft 334kts
12-May-20 13:17 47.316702 -111.872990 100 12023ft 325kts
12-May-20 13:18 47.303494 -111.750170 99 9930ft 283kts
12-May-20 13:19 47.298671 -111.641188 69 8539ft 268kts
12-May-20 13:20 47.345490 -111.565091 43 6972ft 227kts
12-May-20 13:21 47.387334 -111.505243 45 5928ft 201kts
12-May-20 13:22 47.424934 -111.449808 45 4944ft 165kts
12-May-20 13:23 47.453274 -111.407790 45 4147ft 131kts
12-May-20 13:24 47.477117 -111.372320 44 3685ft 80kts
12-May-20 13:25 47.481782 -111.364043 132 3684ft 1kts
12-May-20 13:26 47.482667 -111.361400 44 3684ft 17kts
12-May-20 13:27 47.482570 -111.360100 347 3684ft 10kts
12-May-20 13:28 47.482818 -111.358098 179 3684ft 3kts
12-May-20 13:29 47.482468 -111.358100 180 3684ft 0kts
12-May-20 13:30 47.482468 -111.358100 180 3684ft 0kts
12-May-20 13:31 47.482468 -111.358100 180 3684ft 0kts
12-May-20 13:32 47.482468 -111.358100 180 3684ft 0kts
12-May-20 13:33 47.482468 -111.358100 180 3684ft 0kts
12-May-20 13:34 47.482468 -111.358100 180 3684ft 0kts
12-May-20 13:35 47.482468 -111.358100 180 3684ft 0kts

Navigation Log

Ident Type
Flight plan parsing failed, navigation log unavailable